sensor_id;sensor_type;location;lat;lon;timestamp;temperature;humidity
26821;DHT22;37186;51.394;5.454;2023-05-07T00:02:41;17.90;71.70
26821;DHT22;37186;51.394;5.454;2023-05-07T00:05:42;18.00;71.10
26821;DHT22;37186;51.394;5.454;2023-05-07T00:08:42;17.90;70.80
26821;DHT22;37186;51.394;5.454;2023-05-07T00:11:43;17.90;70.90
26821;DHT22;37186;51.394;5.454;2023-05-07T00:14:43;17.90;71.10
26821;DHT22;37186;51.394;5.454;2023-05-07T00:17:44;17.90;71.00
26821;DHT22;37186;51.394;5.454;2023-05-07T00:20:44;17.90;71.00
26821;DHT22;37186;51.394;5.454;2023-05-07T00:23:45;17.90;70.90
26821;DHT22;37186;51.394;5.454;2023-05-07T00:26:45;17.90;70.90
26821;DHT22;37186;51.394;5.454;2023-05-07T00:29:46;17.90;70.90
26821;DHT22;37186;51.394;5.454;2023-05-07T00:32:46;17.90;71.00
26821;DHT22;37186;51.394;5.454;2023-05-07T00:35:49;17.90;71.00
26821;DHT22;37186;51.394;5.454;2023-05-07T00:38:49;17.90;71.00
26821;DHT22;37186;51.394;5.454;2023-05-07T00:41:50;17.90;71.00
26821;DHT22;37186;51.394;5.454;2023-05-07T00:44:51;17.90;71.00
26821;DHT22;37186;51.394;5.454;2023-05-07T00:47:55;17.90;71.00
26821;DHT22;37186;51.394;5.454;2023-05-07T00:50:56;17.90;71.10
26821;DHT22;37186;51.394;5.454;2023-05-07T00:53:57;17.80;71.00
26821;DHT22;37186;51.394;5.454;2023-05-07T00:56:57;17.90;71.00
26821;DHT22;37186;51.394;5.454;2023-05-07T00:59:58;17.90;71.00
26821;DHT22;37186;51.394;5.454;2023-05-07T01:02:58;17.80;70.90
26821;DHT22;37186;51.394;5.454;2023-05-07T01:05:59;17.80;70.90
26821;DHT22;37186;51.394;5.454;2023-05-07T01:09:01;17.80;70.90
26821;DHT22;37186;51.394;5.454;2023-05-07T01:12:03;17.80;70.90
26821;DHT22;37186;51.394;5.454;2023-05-07T01:15:05;17.80;70.90
26821;DHT22;37186;51.394;5.454;2023-05-07T01:18:07;17.80;71.00
26821;DHT22;37186;51.394;5.454;2023-05-07T01:21:11;17.90;71.00
26821;DHT22;37186;51.394;5.454;2023-05-07T01:24:12;17.80;70.90
26821;DHT22;37186;51.394;5.454;2023-05-07T01:27:12;17.80;71.00
26821;DHT22;37186;51.394;5.454;2023-05-07T01:30:13;17.80;70.90
26821;DHT22;37186;51.394;5.454;2023-05-07T01:33:15;17.80;71.00
26821;DHT22;37186;51.394;5.454;2023-05-07T01:36:20;17.80;72.50
26821;DHT22;37186;51.394;5.454;2023-05-07T01:39:28;17.70;71.10
26821;DHT22;37186;51.394;5.454;2023-05-07T01:42:29;17.70;71.10
26821;DHT22;37186;51.394;5.454;2023-05-07T01:45:30;17.80;71.10
26821;DHT22;37186;51.394;5.454;2023-05-07T01:48:32;17.80;71.20
26821;DHT22;37186;51.394;5.454;2023-05-07T01:51:33;17.70;71.20
26821;DHT22;37186;51.394;5.454;2023-05-07T01:54:34;17.70;71.10
26821;DHT22;37186;51.394;5.454;2023-05-07T01:57:35;17.70;71.10
26821;DHT22;37186;51.394;5.454;2023-05-07T02:00:36;17.70;71.10
26821;DHT22;37186;51.394;5.454;2023-05-07T02:03:36;17.70;71.10
26821;DHT22;37186;51.394;5.454;2023-05-07T02:06:37;17.70;71.20
26821;DHT22;37186;51.394;5.454;2023-05-07T02:09:37;17.70;71.10
26821;DHT22;37186;51.394;5.454;2023-05-07T02:12:38;17.70;71.10
26821;DHT22;37186;51.394;5.454;2023-05-07T02:15:38;17.70;71.20
26821;DHT22;37186;51.394;5.454;2023-05-07T02:18:39;17.60;71.00
26821;DHT22;37186;51.394;5.454;2023-05-07T02:21:40;17.60;71.10
26821;DHT22;37186;51.394;5.454;2023-05-07T02:24:40;17.60;71.10
26821;DHT22;37186;51.394;5.454;2023-05-07T02:27:41;17.60;71.10
26821;DHT22;37186;51.394;5.454;2023-05-07T02:30:41;17.60;71.10
26821;DHT22;37186;51.394;5.454;2023-05-07T02:33:42;17.60;71.10
26821;DHT22;37186;51.394;5.454;2023-05-07T02:36:43;17.60;71.20
26821;DHT22;37186;51.394;5.454;2023-05-07T02:39:43;17.60;71.10
26821;DHT22;37186;51.394;5.454;2023-05-07T02:42:44;17.60;71.20
26821;DHT22;37186;51.394;5.454;2023-05-07T02:45:44;17.60;71.20
26821;DHT22;37186;51.394;5.454;2023-05-07T02:48:45;17.60;71.20
26821;DHT22;37186;51.394;5.454;2023-05-07T02:51:45;17.60;71.20
26821;DHT22;37186;51.394;5.454;2023-05-07T02:54:46;17.60;71.40
26821;DHT22;37186;51.394;5.454;2023-05-07T02:57:46;17.50;71.10
26821;DHT22;37186;51.394;5.454;2023-05-07T03:00:47;17.50;71.10
26821;DHT22;37186;51.394;5.454;2023-05-07T03:03:47;17.50;71.20
26821;DHT22;37186;51.394;5.454;2023-05-07T03:06:48;17.50;71.20
26821;DHT22;37186;51.394;5.454;2023-05-07T03:09:48;17.50;71.30
26821;DHT22;37186;51.394;5.454;2023-05-07T03:12:49;17.50;71.20
26821;DHT22;37186;51.394;5.454;2023-05-07T03:15:50;17.50;71.20
26821;DHT22;37186;51.394;5.454;2023-05-07T03:18:50;17.50;71.60
26821;DHT22;37186;51.394;5.454;2023-05-07T03:21:51;17.50;71.20
26821;DHT22;37186;51.394;5.454;2023-05-07T03:24:51;17.50;71.40
26821;DHT22;37186;51.394;5.454;2023-05-07T03:27:52;17.50;71.30
26821;DHT22;37186;51.394;5.454;2023-05-07T03:30:52;17.40;71.20
26821;DHT22;37186;51.394;5.454;2023-05-07T03:33:55;17.40;71.30
26821;DHT22;37186;51.394;5.454;2023-05-07T03:36:56;17.50;71.30
26821;DHT22;37186;51.394;5.454;2023-05-07T03:39:56;17.40;71.70
26821;DHT22;37186;51.394;5.454;2023-05-07T03:42:57;17.40;71.40
26821;DHT22;37186;51.394;5.454;2023-05-07T03:45:57;17.40;71.50
26821;DHT22;37186;51.394;5.454;2023-05-07T03:48:58;17.40;71.40
26821;DHT22;37186;51.394;5.454;2023-05-07T03:51:59;17.30;71.30
26821;DHT22;37186;51.394;5.454;2023-05-07T03:55:00;17.40;71.40
26821;DHT22;37186;51.394;5.454;2023-05-07T03:58:00;17.40;71.50
26821;DHT22;37186;51.394;5.454;2023-05-07T04:01:01;17.40;72.00
26821;DHT22;37186;51.394;5.454;2023-05-07T04:04:02;17.40;71.80
26821;DHT22;37186;51.394;5.454;2023-05-07T04:07:03;17.40;71.80
26821;DHT22;37186;51.394;5.454;2023-05-07T04:10:04;17.30;71.50
26821;DHT22;37186;51.394;5.454;2023-05-07T04:13:05;17.30;71.50
26821;DHT22;37186;51.394;5.454;2023-05-07T04:16:06;17.30;71.50
26821;DHT22;37186;51.394;5.454;2023-05-07T04:19:06;17.30;71.50
26821;DHT22;37186;51.394;5.454;2023-05-07T04:22:09;17.30;71.50
26821;DHT22;37186;51.394;5.454;2023-05-07T04:25:10;17.30;71.50
26821;DHT22;37186;51.394;5.454;2023-05-07T04:28:10;17.30;71.50
26821;DHT22;37186;51.394;5.454;2023-05-07T04:31:11;17.30;71.40
26821;DHT22;37186;51.394;5.454;2023-05-07T04:34:12;17.30;71.50
26821;DHT22;37186;51.394;5.454;2023-05-07T04:37:13;17.30;71.50
26821;DHT22;37186;51.394;5.454;2023-05-07T04:40:13;17.30;71.50
26821;DHT22;37186;51.394;5.454;2023-05-07T04:43:14;17.30;71.50
26821;DHT22;37186;51.394;5.454;2023-05-07T04:46:14;17.30;71.50
26821;DHT22;37186;51.394;5.454;2023-05-07T04:49:15;17.30;72.00
26821;DHT22;37186;51.394;5.454;2023-05-07T04:52:16;17.30;71.90
26821;DHT22;37186;51.394;5.454;2023-05-07T04:55:17;17.30;71.70
26821;DHT22;37186;51.394;5.454;2023-05-07T04:58:17;17.30;71.60
26821;DHT22;37186;51.394;5.454;2023-05-07T05:01:18;17.30;71.60
26821;DHT22;37186;51.394;5.454;2023-05-07T05:04:18;17.30;71.60
26821;DHT22;37186;51.394;5.454;2023-05-07T05:07:19;17.30;71.60
26821;DHT22;37186;51.394;5.454;2023-05-07T05:10:21;17.30;71.60
26821;DHT22;37186;51.394;5.454;2023-05-07T05:13:22;17.30;71.60
26821;DHT22;37186;51.394;5.454;2023-05-07T05:16:22;17.30;71.60
26821;DHT22;37186;51.394;5.454;2023-05-07T05:19:23;17.30;71.70
26821;DHT22;37186;51.394;5.454;2023-05-07T05:22:24;17.30;71.70
26821;DHT22;37186;51.394;5.454;2023-05-07T05:25:25;17.30;71.60
26821;DHT22;37186;51.394;5.454;2023-05-07T05:28:26;17.30;71.60
26821;DHT22;37186;51.394;5.454;2023-05-07T05:31:27;17.30;71.70
26821;DHT22;37186;51.394;5.454;2023-05-07T05:34:28;17.30;71.60
26821;DHT22;37186;51.394;5.454;2023-05-07T05:37:29;17.40;71.70
26821;DHT22;37186;51.394;5.454;2023-05-07T05:40:30;17.40;71.80
26821;DHT22;37186;51.394;5.454;2023-05-07T05:43:31;17.30;71.80
26821;DHT22;37186;51.394;5.454;2023-05-07T05:46:31;17.40;71.80
26821;DHT22;37186;51.394;5.454;2023-05-07T05:49:32;17.40;72.30
26821;DHT22;37186;51.394;5.454;2023-05-07T05:52:32;17.40;71.80
26821;DHT22;37186;51.394;5.454;2023-05-07T05:55:33;17.40;71.80
26821;DHT22;37186;51.394;5.454;2023-05-07T05:58:34;17.40;72.00
26821;DHT22;37186;51.394;5.454;2023-05-07T06:01:34;17.40;71.80
26821;DHT22;37186;51.394;5.454;2023-05-07T06:04:35;17.50;71.80
26821;DHT22;37186;51.394;5.454;2023-05-07T06:07:35;17.40;71.90
26821;DHT22;37186;51.394;5.454;2023-05-07T06:10:37;17.50;72.20
26821;DHT22;37186;51.394;5.454;2023-05-07T06:13:38;17.50;72.10
26821;DHT22;37186;51.394;5.454;2023-05-07T06:16:38;17.50;72.40
26821;DHT22;37186;51.394;5.454;2023-05-07T06:19:39;17.60;72.20
26821;DHT22;37186;51.394;5.454;2023-05-07T06:22:39;17.60;72.30
26821;DHT22;37186;51.394;5.454;2023-05-07T06:25:40;17.60;72.20
26821;DHT22;37186;51.394;5.454;2023-05-07T06:28:40;17.60;72.20
26821;DHT22;37186;51.394;5.454;2023-05-07T06:31:41;17.60;72.20
26821;DHT22;37186;51.394;5.454;2023-05-07T06:34:41;17.60;72.20
26821;DHT22;37186;51.394;5.454;2023-05-07T06:37:42;17.70;72.50
26821;DHT22;37186;51.394;5.454;2023-05-07T06:40:43;17.70;72.40
26821;DHT22;37186;51.394;5.454;2023-05-07T06:43:43;17.70;72.40
26821;DHT22;37186;51.394;5.454;2023-05-07T06:46:44;17.70;72.60
26821;DHT22;37186;51.394;5.454;2023-05-07T06:49:45;17.80;72.90
26821;DHT22;37186;51.394;5.454;2023-05-07T06:52:46;17.80;72.70
26821;DHT22;37186;51.394;5.454;2023-05-07T06:55:46;17.80;72.70
26821;DHT22;37186;51.394;5.454;2023-05-07T06:58:47;17.90;72.80
26821;DHT22;37186;51.394;5.454;2023-05-07T07:01:47;17.90;72.70
26821;DHT22;37186;51.394;5.454;2023-05-07T07:04:48;17.90;72.80
26821;DHT22;37186;51.394;5.454;2023-05-07T07:07:48;17.90;72.70
26821;DHT22;37186;51.394;5.454;2023-05-07T07:10:55;17.90;72.70
26821;DHT22;37186;51.394;5.454;2023-05-07T07:13:55;18.00;72.70
26821;DHT22;37186;51.394;5.454;2023-05-07T07:16:56;18.00;72.80
26821;DHT22;37186;51.394;5.454;2023-05-07T07:19:57;18.00;72.70
26821;DHT22;37186;51.394;5.454;2023-05-07T07:22:57;18.00;72.70
26821;DHT22;37186;51.394;5.454;2023-05-07T07:25:58;18.10;72.90
26821;DHT22;37186;51.394;5.454;2023-05-07T07:28:59;18.10;73.00
26821;DHT22;37186;51.394;5.454;2023-05-07T07:31:59;18.10;72.80
26821;DHT22;37186;51.394;5.454;2023-05-07T07:35:00;18.20;72.90
26821;DHT22;37186;51.394;5.454;2023-05-07T07:38:00;18.20;73.00
26821;DHT22;37186;51.394;5.454;2023-05-07T07:41:02;18.20;73.00
26821;DHT22;37186;51.394;5.454;2023-05-07T07:44:03;18.20;73.00
26821;DHT22;37186;51.394;5.454;2023-05-07T07:47:07;18.20;72.90
26821;DHT22;37186;51.394;5.454;2023-05-07T07:50:08;18.30;73.00
26821;DHT22;37186;51.394;5.454;2023-05-07T07:53:08;18.30;73.00
26821;DHT22;37186;51.394;5.454;2023-05-07T07:56:09;18.30;73.10
26821;DHT22;37186;51.394;5.454;2023-05-07T07:59:10;18.40;73.00
26821;DHT22;37186;51.394;5.454;2023-05-07T08:02:10;18.40;73.10
26821;DHT22;37186;51.394;5.454;2023-05-07T08:05:11;18.40;73.10
26821;DHT22;37186;51.394;5.454;2023-05-07T08:08:11;18.50;73.20
26821;DHT22;37186;51.394;5.454;2023-05-07T08:11:12;18.50;73.20
26821;DHT22;37186;51.394;5.454;2023-05-07T08:14:13;18.50;73.30
26821;DHT22;37186;51.394;5.454;2023-05-07T08:17:13;18.60;73.20
26821;DHT22;37186;51.394;5.454;2023-05-07T08:20:16;18.60;73.30
26821;DHT22;37186;51.394;5.454;2023-05-07T08:23:16;18.60;73.50
26821;DHT22;37186;51.394;5.454;2023-05-07T08:26:17;18.60;73.50
26821;DHT22;37186;51.394;5.454;2023-05-07T08:29:17;18.70;73.60
26821;DHT22;37186;51.394;5.454;2023-05-07T08:32:18;18.70;73.60
26821;DHT22;37186;51.394;5.454;2023-05-07T08:35:18;18.80;73.70
26821;DHT22;37186;51.394;5.454;2023-05-07T08:38:19;18.80;74.00
26821;DHT22;37186;51.394;5.454;2023-05-07T08:41:20;18.90;73.90
26821;DHT22;37186;51.394;5.454;2023-05-07T08:44:22;18.90;73.90
26821;DHT22;37186;51.394;5.454;2023-05-07T08:47:28;19.00;74.20
26821;DHT22;37186;51.394;5.454;2023-05-07T08:50:29;19.00;74.00
26821;DHT22;37186;51.394;5.454;2023-05-07T08:53:30;19.10;74.10
26821;DHT22;37186;51.394;5.454;2023-05-07T08:56:31;19.10;74.00
26821;DHT22;37186;51.394;5.454;2023-05-07T08:59:32;19.10;73.90
26821;DHT22;37186;51.394;5.454;2023-05-07T09:02:34;19.20;74.00
26821;DHT22;37186;51.394;5.454;2023-05-07T09:05:35;19.20;74.00
26821;DHT22;37186;51.394;5.454;2023-05-07T09:08:36;19.30;74.20
26821;DHT22;37186;51.394;5.454;2023-05-07T09:11:37;19.30;74.70
26821;DHT22;37186;51.394;5.454;2023-05-07T09:14:38;19.30;74.30
26821;DHT22;37186;51.394;5.454;2023-05-07T09:17:39;19.40;74.30
26821;DHT22;37186;51.394;5.454;2023-05-07T09:20:41;19.50;74.50
26821;DHT22;37186;51.394;5.454;2023-05-07T09:23:42;19.50;74.30
26821;DHT22;37186;51.394;5.454;2023-05-07T09:26:42;19.50;74.30
26821;DHT22;37186;51.394;5.454;2023-05-07T09:29:44;19.60;74.40
26821;DHT22;37186;51.394;5.454;2023-05-07T09:32:44;19.60;74.40
26821;DHT22;37186;51.394;5.454;2023-05-07T09:35:45;19.70;74.40
26821;DHT22;37186;51.394;5.454;2023-05-07T09:38:45;19.70;74.40
26821;DHT22;37186;51.394;5.454;2023-05-07T09:41:47;19.80;74.40
26821;DHT22;37186;51.394;5.454;2023-05-07T09:44:47;19.80;74.60
26821;DHT22;37186;51.394;5.454;2023-05-07T09:47:48;19.90;74.50
26821;DHT22;37186;51.394;5.454;2023-05-07T09:50:51;19.90;74.60
26821;DHT22;37186;51.394;5.454;2023-05-07T09:54:00;20.00;74.60
26821;DHT22;37186;51.394;5.454;2023-05-07T09:57:04;20.00;74.50
26821;DHT22;37186;51.394;5.454;2023-05-07T10:00:06;20.10;74.50
26821;DHT22;37186;51.394;5.454;2023-05-07T10:03:09;20.10;74.60
26821;DHT22;37186;51.394;5.454;2023-05-07T10:06:12;20.20;74.60
26821;DHT22;37186;51.394;5.454;2023-05-07T10:09:13;20.20;74.60
26821;DHT22;37186;51.394;5.454;2023-05-07T10:12:16;20.30;74.80
26821;DHT22;37186;51.394;5.454;2023-05-07T10:15:17;20.40;74.90
26821;DHT22;37186;51.394;5.454;2023-05-07T10:18:19;20.40;74.80
26821;DHT22;37186;51.394;5.454;2023-05-07T10:21:23;20.40;74.80
26821;DHT22;37186;51.394;5.454;2023-05-07T10:24:32;20.50;74.70
26821;DHT22;37186;51.394;5.454;2023-05-07T10:27:35;20.60;74.90
26821;DHT22;37186;51.394;5.454;2023-05-07T10:33:51;20.70;75.00
26821;DHT22;37186;51.394;5.454;2023-05-07T10:36:53;20.80;74.80
26821;DHT22;37186;51.394;5.454;2023-05-07T10:39:55;20.80;74.80
26821;DHT22;37186;51.394;5.454;2023-05-07T10:42:58;20.90;74.80
26821;DHT22;37186;51.394;5.454;2023-05-07T10:49:14;21.00;74.70
26821;DHT22;37186;51.394;5.454;2023-05-07T10:52:18;21.00;74.60
26821;DHT22;37186;51.394;5.454;2023-05-07T10:55:19;21.00;74.40
26821;DHT22;37186;51.394;5.454;2023-05-07T11:01:53;21.10;74.40
26821;DHT22;37186;51.394;5.454;2023-05-07T11:05:22;21.10;74.30
26821;DHT22;37186;51.394;5.454;2023-05-07T11:08:23;21.20;74.30
26821;DHT22;37186;51.394;5.454;2023-05-07T11:11:47;21.20;74.20
26821;DHT22;37186;51.394;5.454;2023-05-07T11:14:48;21.20;74.10
26821;DHT22;37186;51.394;5.454;2023-05-07T11:17:57;21.20;74.10
26821;DHT22;37186;51.394;5.454;2023-05-07T11:20:59;21.20;74.50
26821;DHT22;37186;51.394;5.454;2023-05-07T11:24:00;21.30;74.30
26821;DHT22;37186;51.394;5.454;2023-05-07T11:27:01;21.30;74.30
26821;DHT22;37186;51.394;5.454;2023-05-07T11:30:02;21.40;74.40
26821;DHT22;37186;51.394;5.454;2023-05-07T11:33:03;21.50;74.40
26821;DHT22;37186;51.394;5.454;2023-05-07T11:36:05;21.50;74.30
26821;DHT22;37186;51.394;5.454;2023-05-07T11:39:05;21.50;74.30
26821;DHT22;37186;51.394;5.454;2023-05-07T11:42:06;21.60;74.20
26821;DHT22;37186;51.394;5.454;2023-05-07T11:45:08;21.60;74.20
26821;DHT22;37186;51.394;5.454;2023-05-07T11:48:09;21.70;74.20
26821;DHT22;37186;51.394;5.454;2023-05-07T11:51:10;21.70;74.00
26821;DHT22;37186;51.394;5.454;2023-05-07T11:54:15;21.70;73.90
26821;DHT22;37186;51.394;5.454;2023-05-07T11:57:16;21.70;73.80
26821;DHT22;37186;51.394;5.454;2023-05-07T12:00:17;21.70;73.70
26821;DHT22;37186;51.394;5.454;2023-05-07T12:03:17;21.70;73.70
26821;DHT22;37186;51.394;5.454;2023-05-07T12:06:18;21.70;73.50
26821;DHT22;37186;51.394;5.454;2023-05-07T12:09:19;21.70;73.50
26821;DHT22;37186;51.394;5.454;2023-05-07T12:12:19;21.70;73.40
26821;DHT22;37186;51.394;5.454;2023-05-07T12:15:22;21.70;73.30
26821;DHT22;37186;51.394;5.454;2023-05-07T12:18:23;21.70;73.30
26821;DHT22;37186;51.394;5.454;2023-05-07T12:21:25;21.70;73.80
26821;DHT22;37186;51.394;5.454;2023-05-07T12:24:25;21.60;73.30
26821;DHT22;37186;51.394;5.454;2023-05-07T12:27:26;21.60;73.10
26821;DHT22;37186;51.394;5.454;2023-05-07T12:30:27;21.50;73.20
26821;DHT22;37186;51.394;5.454;2023-05-07T12:33:27;21.40;73.10
26821;DHT22;37186;51.394;5.454;2023-05-07T12:36:37;21.40;73.00
26821;DHT22;37186;51.394;5.454;2023-05-07T12:39:38;21.30;73.10
26821;DHT22;37186;51.394;5.454;2023-05-07T12:42:40;21.20;73.00
26821;DHT22;37186;51.394;5.454;2023-05-07T12:45:41;21.10;73.10
26821;DHT22;37186;51.394;5.454;2023-05-07T12:48:45;21.00;73.10
26821;DHT22;37186;51.394;5.454;2023-05-07T12:51:49;21.00;73.20
26821;DHT22;37186;51.394;5.454;2023-05-07T12:54:49;21.00;74.00
26821;DHT22;37186;51.394;5.454;2023-05-07T12:57:50;20.90;73.30
26821;DHT22;37186;51.394;5.454;2023-05-07T13:00:52;20.90;73.50
26821;DHT22;37186;51.394;5.454;2023-05-07T13:03:52;20.90;73.50
26821;DHT22;37186;51.394;5.454;2023-05-07T13:06:53;20.80;73.80
26821;DHT22;37186;51.394;5.454;2023-05-07T13:09:53;20.80;73.80
26821;DHT22;37186;51.394;5.454;2023-05-07T13:12:54;20.80;73.80
26821;DHT22;37186;51.394;5.454;2023-05-07T13:15:54;20.80;74.30
26821;DHT22;37186;51.394;5.454;2023-05-07T13:18:55;20.90;74.60
26821;DHT22;37186;51.394;5.454;2023-05-07T13:21:55;20.90;74.60
26821;DHT22;37186;51.394;5.454;2023-05-07T13:24:56;20.90;74.70
26821;DHT22;37186;51.394;5.454;2023-05-07T13:27:57;20.90;74.70
26821;DHT22;37186;51.394;5.454;2023-05-07T13:30:57;21.00;75.00
26821;DHT22;37186;51.394;5.454;2023-05-07T13:33:58;21.00;74.70
26821;DHT22;37186;51.394;5.454;2023-05-07T13:36:58;21.00;74.90
26821;DHT22;37186;51.394;5.454;2023-05-07T13:39:59;21.10;74.90
26821;DHT22;37186;51.394;5.454;2023-05-07T13:43:00;21.10;74.90
26821;DHT22;37186;51.394;5.454;2023-05-07T13:46:02;21.10;74.80
26821;DHT22;37186;51.394;5.454;2023-05-07T13:49:02;21.10;74.90
26821;DHT22;37186;51.394;5.454;2023-05-07T13:52:03;21.10;74.70
26821;DHT22;37186;51.394;5.454;2023-05-07T13:55:04;21.20;75.20
26821;DHT22;37186;51.394;5.454;2023-05-07T13:58:05;21.20;75.00
26821;DHT22;37186;51.394;5.454;2023-05-07T14:01:06;21.30;75.10
26821;DHT22;37186;51.394;5.454;2023-05-07T14:04:06;21.30;75.00
26821;DHT22;37186;51.394;5.454;2023-05-07T14:07:08;21.30;74.80
26821;DHT22;37186;51.394;5.454;2023-05-07T14:10:08;21.30;74.70
26821;DHT22;37186;51.394;5.454;2023-05-07T14:13:10;21.30;74.90
26821;DHT22;37186;51.394;5.454;2023-05-07T14:16:10;21.30;74.70
26821;DHT22;37186;51.394;5.454;2023-05-07T14:19:12;21.30;74.90
26821;DHT22;37186;51.394;5.454;2023-05-07T14:22:13;21.30;74.60
26821;DHT22;37186;51.394;5.454;2023-05-07T14:25:15;21.30;74.40
26821;DHT22;37186;51.394;5.454;2023-05-07T14:28:15;21.30;74.50
26821;DHT22;37186;51.394;5.454;2023-05-07T14:31:16;21.30;74.50
26821;DHT22;37186;51.394;5.454;2023-05-07T14:34:17;21.20;74.70
26821;DHT22;37186;51.394;5.454;2023-05-07T14:37:17;21.30;74.80
26821;DHT22;37186;51.394;5.454;2023-05-07T14:40:20;21.30;74.90
26821;DHT22;37186;51.394;5.454;2023-05-07T14:43:20;21.30;74.60
26821;DHT22;37186;51.394;5.454;2023-05-07T14:46:21;21.30;74.60
26821;DHT22;37186;51.394;5.454;2023-05-07T14:49:22;21.30;74.60
26821;DHT22;37186;51.394;5.454;2023-05-07T14:52:22;21.30;74.60
26821;DHT22;37186;51.394;5.454;2023-05-07T14:55:23;21.30;74.70
26821;DHT22;37186;51.394;5.454;2023-05-07T14:58:23;21.20;74.60
26821;DHT22;37186;51.394;5.454;2023-05-07T15:01:26;21.30;74.80
26821;DHT22;37186;51.394;5.454;2023-05-07T15:04:26;21.30;74.90
26821;DHT22;37186;51.394;5.454;2023-05-07T15:07:27;21.30;74.80
26821;DHT22;37186;51.394;5.454;2023-05-07T15:10:28;21.30;74.90
26821;DHT22;37186;51.394;5.454;2023-05-07T15:13:29;21.30;75.00
26821;DHT22;37186;51.394;5.454;2023-05-07T15:16:29;21.30;75.00
26821;DHT22;37186;51.394;5.454;2023-05-07T15:19:30;21.30;75.10
26821;DHT22;37186;51.394;5.454;2023-05-07T15:22:30;21.40;75.60
26821;DHT22;37186;51.394;5.454;2023-05-07T15:25:31;21.40;75.20
26821;DHT22;37186;51.394;5.454;2023-05-07T15:28:33;21.40;75.20
26821;DHT22;37186;51.394;5.454;2023-05-07T15:31:34;21.40;75.40
26821;DHT22;37186;51.394;5.454;2023-05-07T15:34:35;21.50;75.40
26821;DHT22;37186;51.394;5.454;2023-05-07T15:37:35;21.50;75.70
26821;DHT22;37186;51.394;5.454;2023-05-07T15:40:36;21.50;75.50
26821;DHT22;37186;51.394;5.454;2023-05-07T15:43:47;21.60;75.90
26821;DHT22;37186;51.394;5.454;2023-05-07T15:46:48;21.60;75.70
26821;DHT22;37186;51.394;5.454;2023-05-07T15:49:49;21.60;75.20
26821;DHT22;37186;51.394;5.454;2023-05-07T15:52:49;21.60;75.20
26821;DHT22;37186;51.394;5.454;2023-05-07T15:55:50;21.60;75.30
26821;DHT22;37186;51.394;5.454;2023-05-07T15:58:51;21.60;75.20
26821;DHT22;37186;51.394;5.454;2023-05-07T16:01:52;21.60;75.50
26821;DHT22;37186;51.394;5.454;2023-05-07T16:04:53;21.60;75.20
26821;DHT22;37186;51.394;5.454;2023-05-07T16:07:54;21.70;75.40
26821;DHT22;37186;51.394;5.454;2023-05-07T16:10:56;21.60;75.10
26821;DHT22;37186;51.394;5.454;2023-05-07T16:13:57;21.70;75.20
26821;DHT22;37186;51.394;5.454;2023-05-07T16:17:00;21.70;75.80
26821;DHT22;37186;51.394;5.454;2023-05-07T16:20:02;21.70;75.50
26821;DHT22;37186;51.394;5.454;2023-05-07T16:23:05;21.70;75.30
26821;DHT22;37186;51.394;5.454;2023-05-07T16:26:06;21.70;75.10
26821;DHT22;37186;51.394;5.454;2023-05-07T16:29:06;21.70;75.20
26821;DHT22;37186;51.394;5.454;2023-05-07T16:32:07;21.70;75.10
26821;DHT22;37186;51.394;5.454;2023-05-07T16:35:08;21.70;75.00
26821;DHT22;37186;51.394;5.454;2023-05-07T16:38:08;21.70;74.90
26821;DHT22;37186;51.394;5.454;2023-05-07T16:41:10;21.70;74.90
26821;DHT22;37186;51.394;5.454;2023-05-07T16:44:11;21.70;74.90
26821;DHT22;37186;51.394;5.454;2023-05-07T16:47:11;21.70;74.90
26821;DHT22;37186;51.394;5.454;2023-05-07T16:50:12;21.70;75.00
26821;DHT22;37186;51.394;5.454;2023-05-07T16:53:12;21.70;74.80
26821;DHT22;37186;51.394;5.454;2023-05-07T16:56:13;21.70;74.80
26821;DHT22;37186;51.394;5.454;2023-05-07T16:59:13;21.70;74.80
26821;DHT22;37186;51.394;5.454;2023-05-07T17:02:14;21.70;74.80
26821;DHT22;37186;51.394;5.454;2023-05-07T17:05:14;21.70;74.80
26821;DHT22;37186;51.394;5.454;2023-05-07T17:08:15;21.70;74.70
26821;DHT22;37186;51.394;5.454;2023-05-07T17:11:15;21.70;74.80
26821;DHT22;37186;51.394;5.454;2023-05-07T17:14:16;21.70;74.90
26821;DHT22;37186;51.394;5.454;2023-05-07T17:17:16;21.70;75.30
26821;DHT22;37186;51.394;5.454;2023-05-07T17:20:17;21.70;74.90
26821;DHT22;37186;51.394;5.454;2023-05-07T17:23:18;21.70;74.70
26821;DHT22;37186;51.394;5.454;2023-05-07T17:26:18;21.70;74.80
26821;DHT22;37186;51.394;5.454;2023-05-07T17:29:19;21.70;74.80
26821;DHT22;37186;51.394;5.454;2023-05-07T17:32:19;21.70;74.80
26821;DHT22;37186;51.394;5.454;2023-05-07T17:35:20;21.60;74.70
26821;DHT22;37186;51.394;5.454;2023-05-07T17:38:20;21.60;74.60
26821;DHT22;37186;51.394;5.454;2023-05-07T17:41:21;21.60;74.60
26821;DHT22;37186;51.394;5.454;2023-05-07T17:44:22;21.60;74.60
26821;DHT22;37186;51.394;5.454;2023-05-07T17:47:22;21.60;74.60
26821;DHT22;37186;51.394;5.454;2023-05-07T17:50:23;21.60;74.60
26821;DHT22;37186;51.394;5.454;2023-05-07T17:53:23;21.60;74.60
26821;DHT22;37186;51.394;5.454;2023-05-07T17:56:26;21.50;75.00
26821;DHT22;37186;51.394;5.454;2023-05-07T17:59:27;21.50;74.60
26821;DHT22;37186;51.394;5.454;2023-05-07T18:02:28;21.50;74.60
26821;DHT22;37186;51.394;5.454;2023-05-07T18:05:29;21.50;74.50
26821;DHT22;37186;51.394;5.454;2023-05-07T18:08:29;21.50;74.60
26821;DHT22;37186;51.394;5.454;2023-05-07T18:11:30;21.40;74.90
26821;DHT22;37186;51.394;5.454;2023-05-07T18:14:32;21.40;74.60
26821;DHT22;37186;51.394;5.454;2023-05-07T18:17:33;21.40;74.50
26821;DHT22;37186;51.394;5.454;2023-05-07T18:20:33;21.40;74.60
26821;DHT22;37186;51.394;5.454;2023-05-07T18:23:34;21.30;74.50
26821;DHT22;37186;51.394;5.454;2023-05-07T18:26:36;21.30;74.60
26821;DHT22;37186;51.394;5.454;2023-05-07T18:29:36;21.30;74.70
26821;DHT22;37186;51.394;5.454;2023-05-07T18:32:37;21.20;74.60
26821;DHT22;37186;51.394;5.454;2023-05-07T18:35:37;21.20;74.60
26821;DHT22;37186;51.394;5.454;2023-05-07T18:38:38;21.10;74.60
26821;DHT22;37186;51.394;5.454;2023-05-07T18:41:38;21.10;74.80
26821;DHT22;37186;51.394;5.454;2023-05-07T18:44:39;21.10;74.60
26821;DHT22;37186;51.394;5.454;2023-05-07T18:47:39;21.00;74.50
26821;DHT22;37186;51.394;5.454;2023-05-07T18:50:43;21.00;74.50
26821;DHT22;37186;51.394;5.454;2023-05-07T18:53:44;21.00;74.70
26821;DHT22;37186;51.394;5.454;2023-05-07T18:56:44;21.00;74.70
26821;DHT22;37186;51.394;5.454;2023-05-07T18:59:45;20.90;74.70
26821;DHT22;37186;51.394;5.454;2023-05-07T19:02:45;20.90;74.70
26821;DHT22;37186;51.394;5.454;2023-05-07T19:05:46;20.90;74.70
26821;DHT22;37186;51.394;5.454;2023-05-07T19:08:46;20.80;74.80
26821;DHT22;37186;51.394;5.454;2023-05-07T19:11:47;20.80;74.80
26821;DHT22;37186;51.394;5.454;2023-05-07T19:14:47;20.80;74.80